Time;durP1;ratioP1;P1;durP2;ratioP2;P2;SDS_P1;SDS_P2;PMS_P1;PMS_P2;Temp;Humidity;BMP_temperature;BMP_pressure;BME280_temperature;BME280_humidity;BME280_pressure;Samples;Min_cycle;Max_cycle;Signal;HPM_P1;HPM_P2
2023/08/26 00:00:27;;;;;;;7.03;6.43;;;21.10;99.90;;;;;;5056351;28;20553;-78
2023/08/26 00:02:55;;;;;;;10.30;7.33;;;21.00;99.90;;;;;;5056523;28;20457;-76
2023/08/26 00:05:28;;;;;;;7.70;6.83;;;21.00;99.90;;;;;;5056906;28;20493;-78
2023/08/26 00:07:57;;;;;;;7.53;6.93;;;20.90;99.90;;;;;;5057006;28;20480;-77
2023/08/26 00:10:29;;;;;;;7.67;7.07;;;20.90;99.90;;;;;;5056791;28;20493;-77
2023/08/26 00:13:01;;;;;;;7.57;6.97;;;20.80;99.90;;;;;;5055725;28;20453;-76
2023/08/26 00:15:52;;;;;;;7.97;7.27;;;20.50;99.90;;;;;;5062454;28;20828;-76
2023/08/26 00:18:20;;;;;;;8.10;7.43;;;20.80;99.90;;;;;;5067722;28;20435;-78
2023/08/26 00:20:57;;;;;;;8.13;7.33;;;20.80;99.90;;;;;;5074555;28;20430;-74
2023/08/26 00:23:30;;;;;;;7.03;6.53;;;20.80;99.90;;;;;;5075515;28;20467;-77
2023/08/26 00:26:00;;;;;;;7.50;6.90;;;20.70;99.90;;;;;;5068876;28;20449;-76
2023/08/26 00:28:30;;;;;;;10.50;7.00;;;20.70;99.90;;;;;;5060847;28;20465;-77
2023/08/26 00:31:05;;;;;;;7.30;6.77;;;20.70;99.90;;;;;;5061413;28;20480;-78
2023/08/26 00:33:33;;;;;;;8.10;6.93;;;20.70;99.90;;;;;;5063812;28;20453;-77
2023/08/26 00:36:10;;;;;;;9.43;8.13;;;20.70;99.90;;;;;;5064134;28;20469;-77
2023/08/26 00:38:39;;;;;;;7.60;6.90;;;20.70;99.90;;;;;;5063609;28;20476;-76
2023/08/26 00:41:08;;;;;;;7.70;7.00;;;20.70;99.90;;;;;;5063667;28;20457;-75
2023/08/26 00:43:39;;;;;;;7.93;7.13;;;20.60;99.90;;;;;;5062859;28;20449;-76
2023/08/26 00:46:10;;;;;;;7.90;6.67;;;20.60;99.90;;;;;;5062709;28;20465;-79
2023/08/26 00:48:40;;;;;;;7.53;6.83;;;20.60;99.90;;;;;;5063255;28;20473;-79
2023/08/26 00:51:14;;;;;;;7.80;6.17;;;20.50;99.90;;;;;;5062855;28;20533;-78
2023/08/26 00:53:46;;;;;;;6.87;6.27;;;20.70;99.90;;;;;;5060979;28;20480;-77
2023/08/26 00:56:14;;;;;;;7.03;6.53;;;20.50;99.90;;;;;;5064120;28;20465;-78
2023/08/26 00:58:44;;;;;;;7.80;7.20;;;20.50;99.90;;;;;;5062790;28;20446;-78
2023/08/26 01:01:12;;;;;;;8.77;6.53;;;20.50;99.90;;;;;;5061982;28;20437;-77
2023/08/26 01:03:46;;;;;;;6.43;5.93;;;20.40;99.90;;;;;;5060662;28;20525;-78
2023/08/26 01:06:26;;;;;;;7.07;6.50;;;20.40;99.90;;;;;;5061535;28;20541;-79
2023/08/26 01:08:54;;;;;;;6.97;6.43;;;20.40;99.90;;;;;;5057677;28;20481;-76
2023/08/26 01:11:30;;;;;;;6.50;5.90;;;20.40;99.90;;;;;;5057646;28;20452;-76
2023/08/26 01:14:12;;;;;;;7.13;5.63;;;20.30;99.90;;;;;;5057407;28;20533;-79
2023/08/26 01:16:42;;;;;;;7.10;6.40;;;20.40;99.90;;;;;;5057614;28;20452;-76
2023/08/26 01:19:21;;;;;;;7.80;7.03;;;20.40;99.90;;;;;;5057675;28;20446;-78
2023/08/26 01:21:55;;;;;;;6.80;6.20;;;20.40;99.90;;;;;;5059024;28;20453;-77
2023/08/26 01:24:29;;;;;;;6.23;5.73;;;20.30;99.90;;;;;;5037285;28;20454;-77
2023/08/26 01:27:02;;;;;;;5.93;5.43;;;20.20;99.90;;;;;;5035685;28;20557;-77
2023/08/26 01:29:33;;;;;;;9.40;6.43;;;20.20;99.90;;;;;;5038191;28;20489;-78
2023/08/26 01:32:11;;;;;;;10.93;6.40;;;20.10;99.90;;;;;;5038982;28;20771;-79
2023/08/26 01:34:48;;;;;;;8.33;7.40;;;20.10;99.90;;;;;;5036259;28;20872;-77
2023/08/26 01:37:19;;;;;;;8.67;7.83;;;20.00;99.90;;;;;;5036682;28;20545;-77
2023/08/26 01:39:53;;;;;;;6.70;6.20;;;20.00;99.90;;;;;;5037857;28;20433;-78
2023/08/26 01:42:24;;;;;;;8.40;6.30;;;19.90;99.90;;;;;;5035546;28;20545;-80
2023/08/26 01:44:53;;;;;;;6.60;6.00;;;19.80;99.90;;;;;;5036389;28;20455;-76
2023/08/26 01:47:21;;;;;;;6.03;5.50;;;19.80;99.90;;;;;;5036193;28;20498;-77
2023/08/26 01:49:49;;;;;;;6.53;5.90;;;19.70;99.90;;;;;;5037249;28;20478;-76
2023/08/26 01:52:18;;;;;;;5.90;5.40;;;19.70;99.90;;;;;;5035075;28;20491;-79
2023/08/26 01:54:49;;;;;;;6.83;5.97;;;19.70;99.90;;;;;;5034536;28;20442;-78
2023/08/26 01:57:18;;;;;;;6.23;5.63;;;19.70;99.90;;;;;;5035383;28;20470;-77
2023/08/26 01:59:46;;;;;;;6.70;5.80;;;19.70;99.90;;;;;;5036833;28;20458;-77
2023/08/26 02:02:13;;;;;;;5.53;5.13;;;20.00;99.90;;;;;;5039821;28;20450;-77
2023/08/26 02:04:41;;;;;;;7.00;6.33;;;19.70;99.90;;;;;;5038504;28;20462;-80
2023/08/26 02:07:11;;;;;;;6.80;6.20;;;19.80;99.90;;;;;;5040740;28;20466;-77
2023/08/26 02:09:41;;;;;;;6.90;6.20;;;19.80;99.90;;;;;;5039534;28;20998;-77
2023/08/26 02:12:09;;;;;;;6.63;4.93;;;19.80;99.90;;;;;;5039449;28;20515;-79
2023/08/26 02:14:38;;;;;;;5.20;4.70;;;19.70;99.90;;;;;;5038211;28;20450;-76
2023/08/26 02:17:07;;;;;;;5.70;5.30;;;19.70;99.90;;;;;;5039654;28;20613;-76
2023/08/26 02:19:43;;;;;;;5.10;4.60;;;19.70;99.90;;;;;;5039266;28;20435;-77
2023/08/26 02:22:11;;;;;;;6.40;5.03;;;19.70;99.90;;;;;;5038907;28;20450;-79
2023/08/26 02:24:39;;;;;;;7.60;5.03;;;19.70;99.90;;;;;;5038415;28;20538;-78
2023/08/26 02:27:06;;;;;;;5.60;5.10;;;19.60;99.90;;;;;;5038726;28;20512;-78
2023/08/26 02:29:35;;;;;;;4.87;4.37;;;19.70;99.90;;;;;;5037754;28;20482;-77
2023/08/26 02:32:04;;;;;;;4.77;4.30;;;19.70;99.90;;;;;;5037754;28;20470;-76
2023/08/26 02:34:32;;;;;;;6.20;4.70;;;19.70;99.90;;;;;;5037236;28;20437;-78
2023/08/26 02:37:01;;;;;;;7.13;4.63;;;19.70;99.90;;;;;;5036895;28;20462;-77
2023/08/26 02:39:28;;;;;;;4.50;4.17;;;19.70;99.90;;;;;;5036059;28;20446;-77
2023/08/26 02:41:56;;;;;;;4.80;4.50;;;19.70;99.90;;;;;;5035876;28;20869;-79
2023/08/26 02:44:24;;;;;;;4.60;4.20;;;19.70;99.90;;;;;;5036441;28;20443;-79
2023/08/26 02:46:56;;;;;;;4.80;4.30;;;19.70;99.90;;;;;;5036556;28;20454;-79
2023/08/26 02:49:28;;;;;;;4.47;4.10;;;19.70;99.90;;;;;;5036472;28;20474;-77
2023/08/26 02:51:56;;;;;;;4.80;4.40;;;19.70;99.90;;;;;;5036704;28;20470;-78
2023/08/26 02:54:26;;;;;;;5.07;4.63;;;19.70;99.90;;;;;;5035955;28;20462;-77
2023/08/26 02:57:00;;;;;;;4.97;4.60;;;19.70;99.90;;;;;;5036414;28;20494;-79
2023/08/26 02:59:29;;;;;;;4.90;4.57;;;19.70;99.90;;;;;;5037935;28;20505;-79
2023/08/26 03:02:03;;;;;;;5.40;4.83;;;19.60;99.90;;;;;;5037054;28;20528;-77
2023/08/26 03:04:33;;;;;;;5.03;4.60;;;19.70;99.90;;;;;;5035437;28;20458;-78
2023/08/26 03:07:01;;;;;;;6.10;5.03;;;19.70;99.90;;;;;;5036302;28;20474;-77
2023/08/26 03:09:29;;;;;;;5.17;4.50;;;19.70;99.90;;;;;;5037919;28;20483;-77
2023/08/26 03:11:57;;;;;;;4.40;4.10;;;19.60;99.90;;;;;;5036822;28;20825;-77
2023/08/26 03:14:24;;;;;;;5.13;4.73;;;19.60;99.90;;;;;;5036166;28;20454;-79
2023/08/26 03:16:53;;;;;;;4.67;4.27;;;19.60;99.90;;;;;;5036792;28;20467;-77
2023/08/26 03:19:21;;;;;;;6.00;4.80;;;19.60;99.90;;;;;;5036994;28;20862;-79
2023/08/26 03:21:51;;;;;;;5.57;5.03;;;19.60;99.90;;;;;;5037487;28;20446;-78
2023/08/26 03:24:19;;;;;;;5.30;4.80;;;19.60;99.90;;;;;;5058081;28;20457;-79
2023/08/26 03:26:47;;;;;;;5.47;5.07;;;19.80;99.90;;;;;;5057442;28;20548;-77
2023/08/26 03:29:14;;;;;;;5.10;4.60;;;19.60;99.90;;;;;;5059620;28;20548;-77
2023/08/26 03:31:43;;;;;;;7.53;4.60;;;19.60;99.90;;;;;;5058951;28;20445;-78
2023/08/26 03:34:11;;;;;;;5.20;4.70;;;19.60;99.90;;;;;;5056317;28;20829;-78
2023/08/26 03:36:39;;;;;;;5.77;5.20;;;19.60;99.90;;;;;;5061694;28;21143;-77
2023/08/26 03:39:08;;;;;;;5.73;5.23;;;19.60;99.90;;;;;;5056916;28;20437;-77
2023/08/26 03:41:36;;;;;;;5.57;4.80;;;19.60;99.90;;;;;;5053380;28;20461;-77
2023/08/26 03:44:04;;;;;;;5.20;4.80;;;19.60;99.90;;;;;;5054058;28;20544;-77
2023/08/26 03:46:32;;;;;;;5.40;5.00;;;19.50;99.90;;;;;;5055036;28;20844;-78
2023/08/26 03:49:00;;;;;;;5.50;5.10;;;19.60;99.90;;;;;;5056866;28;20811;-78
2023/08/26 03:51:27;;;;;;;4.90;4.30;;;19.70;99.90;;;;;;5060225;28;20941;-78
2023/08/26 03:53:58;;;;;;;5.60;5.10;;;19.50;99.90;;;;;;5059691;28;20451;-78
2023/08/26 03:56:28;;;;;;;6.13;5.63;;;19.50;99.90;;;;;;5054024;28;20525;-78
2023/08/26 03:58:59;;;;;;;5.50;5.00;;;19.40;99.90;;;;;;5052072;28;20972;-78
2023/08/26 04:01:29;;;;;;;6.10;5.40;;;19.40;99.90;;;;;;5051849;28;20473;-76
2023/08/26 04:04:00;;;;;;;5.63;5.07;;;19.40;99.90;;;;;;5051015;28;20545;-80
2023/08/26 04:06:28;;;;;;;5.97;5.37;;;19.40;99.90;;;;;;5052398;28;20560;-77
2023/08/26 04:08:56;;;;;;;5.90;5.30;;;19.40;99.90;;;;;;5052290;28;20517;-79
2023/08/26 04:11:23;;;;;;;10.20;4.93;;;19.40;99.90;;;;;;5051908;28;20949;-78
2023/08/26 04:13:52;;;;;;;6.67;6.00;;;19.40;99.90;;;;;;5054820;28;20921;-77
2023/08/26 04:16:21;;;;;;;6.10;5.50;;;19.40;99.90;;;;;;5054277;28;20466;-76
2023/08/26 04:18:49;;;;;;;5.60;5.00;;;19.40;99.90;;;;;;5053080;28;20952;-77
2023/08/26 04:21:17;;;;;;;7.03;5.27;;;19.40;99.90;;;;;;5052381;28;20895;-76
2023/08/26 04:23:58;;;;;;;6.60;5.90;;;19.40;99.90;;;;;;5053952;28;20971;-78
2023/08/26 04:26:29;;;;;;;6.77;5.73;;;19.40;99.90;;;;;;5055905;28;20954;-77
2023/08/26 04:28:58;;;;;;;6.10;5.47;;;19.40;99.90;;;;;;5058749;28;20445;-79
2023/08/26 04:31:27;;;;;;;6.83;5.53;;;19.40;99.90;;;;;;5055882;28;20891;-77
2023/08/26 04:34:06;;;;;;;5.93;5.33;;;19.40;99.90;;;;;;5054995;28;20446;-76
2023/08/26 04:36:45;;;;;;;5.47;4.97;;;19.30;99.90;;;;;;5054873;28;20445;-77
2023/08/26 04:42:05;;;;;;;6.90;5.80;;;19.30;99.90;;;;;;5054126;28;20488;-79
2023/08/26 04:44:40;;;;;;;5.97;5.33;;;19.30;99.90;;;;;;5057414;28;20468;-77
2023/08/26 04:47:08;;;;;;;6.17;5.63;;;19.20;99.90;;;;;;5055981;28;20531;-78
2023/08/26 04:49:36;;;;;;;5.87;5.37;;;19.30;99.90;;;;;;5058871;28;20469;-77
2023/08/26 04:52:09;;;;;;;5.77;5.17;;;19.30;99.90;;;;;;5058713;28;20484;-78
2023/08/26 04:54:46;;;;;;;7.37;5.50;;;19.30;99.90;;;;;;5056496;28;20449;-78
2023/08/26 04:57:23;;;;;;;7.60;4.87;;;19.30;99.90;;;;;;5062419;28;20465;-80
2023/08/26 05:00:00;;;;;;;8.27;5.17;;;19.30;99.90;;;;;;5061777;28;20454;-78
2023/08/26 05:02:47;;;;;;;5.70;5.20;;;19.20;99.90;;;;;;5061449;28;20457;-77
2023/08/26 05:05:27;;;;;;;5.73;5.20;;;19.30;99.90;;;;;;5061812;28;20503;-76
2023/08/26 05:07:57;;;;;;;7.40;5.43;;;19.20;99.90;;;;;;5060170;28;20524;-77
2023/08/26 05:10:27;;;;;;;7.13;5.90;;;19.20;99.90;;;;;;5060439;28;20499;-77
2023/08/26 05:13:01;;;;;;;5.37;4.90;;;19.20;99.90;;;;;;5056082;28;20422;-77
2023/08/26 05:15:30;;;;;;;6.67;5.60;;;19.20;99.90;;;;;;5055155;28;20445;-77
2023/08/26 05:17:58;;;;;;;6.40;5.80;;;19.20;99.90;;;;;;5057214;28;21012;-76
2023/08/26 05:20:29;;;;;;;6.17;5.57;;;19.20;99.90;;;;;;5057107;28;20494;-80
2023/08/26 05:22:58;;;;;;;7.93;6.07;;;19.20;99.90;;;;;;5055470;28;20461;-78
2023/08/26 05:25:26;;;;;;;5.87;5.27;;;19.20;99.90;;;;;;5055268;28;20456;-77
2023/08/26 05:27:54;;;;;;;6.63;5.40;;;19.20;99.90;;;;;;5058437;28;20894;-79
2023/08/26 05:30:27;;;;;;;5.53;5.10;;;19.30;99.90;;;;;;5058452;28;20481;-79
2023/08/26 05:32:56;;;;;;;6.70;5.80;;;19.30;99.90;;;;;;5056871;28;20484;-77
2023/08/26 05:35:23;;;;;;;8.83;5.97;;;19.30;99.90;;;;;;5056419;28;20472;-79
2023/08/26 05:37:54;;;;;;;5.77;5.37;;;19.30;99.90;;;;;;5054853;28;20551;-76
2023/08/26 05:40:28;;;;;;;6.97;6.37;;;19.30;99.90;;;;;;5054968;28;20560;-78
2023/08/26 05:42:56;;;;;;;6.63;5.30;;;19.30;99.90;;;;;;5053856;28;20448;-78
2023/08/26 05:45:28;;;;;;;6.70;5.83;;;19.30;99.90;;;;;;5054484;28;20461;-76
2023/08/26 05:47:56;;;;;;;9.33;5.90;;;19.30;99.90;;;;;;5053909;28;20504;-79
2023/08/26 05:50:24;;;;;;;6.50;5.90;;;19.30;99.90;;;;;;5054278;28;20469;-77
2023/08/26 05:52:57;;;;;;;7.20;5.40;;;19.30;99.90;;;;;;5054887;28;20441;-79
2023/08/26 05:55:25;;;;;;;6.97;5.73;;;19.30;99.90;;;;;;5056672;28;20433;-79
2023/08/26 05:57:55;;;;;;;6.27;5.57;;;19.50;99.90;;;;;;5056411;28;20461;-78
2023/08/26 06:00:27;;;;;;;7.00;5.33;;;19.50;99.90;;;;;;5055401;28;20537;-78
2023/08/26 06:02:57;;;;;;;6.40;5.80;;;19.70;99.90;;;;;;5055958;28;20544;-79
2023/08/26 06:05:28;;;;;;;7.50;5.20;;;19.80;99.90;;;;;;5053711;28;20445;-80
2023/08/26 06:07:55;;;;;;;5.37;4.80;;;19.90;99.90;;;;;;5052933;28;20889;-78
2023/08/26 06:10:23;;;;;;;5.60;5.07;;;19.90;99.90;;;;;;5053196;28;20481;-77
2023/08/26 06:12:51;;;;;;;6.00;5.50;;;19.90;99.90;;;;;;5052170;28;20449;-76
2023/08/26 06:15:19;;;;;;;10.63;5.27;;;19.70;99.90;;;;;;5053063;28;20504;-76
2023/08/26 06:17:47;;;;;;;5.37;4.73;;;19.70;99.90;;;;;;5053499;28;20478;-78
2023/08/26 06:20:16;;;;;;;5.90;5.30;;;19.80;99.90;;;;;;5055414;28;20445;-78
2023/08/26 06:22:50;;;;;;;8.53;5.67;;;19.90;99.90;;;;;;5053029;28;20452;-78
2023/08/26 06:25:21;;;;;;;5.53;5.00;;;20.00;99.90;;;;;;5053371;28;20450;-77
2023/08/26 06:27:49;;;;;;;9.33;6.20;;;20.10;99.90;;;;;;5052772;28;20480;-77
2023/08/26 06:30:16;;;;;;;6.17;4.60;;;20.20;99.90;;;;;;5052668;28;20491;-77
2023/08/26 06:32:53;;;;;;;6.00;5.50;;;20.30;99.90;;;;;;5052622;28;20432;-77
2023/08/26 06:35:32;;;;;;;7.37;6.63;;;20.30;99.90;;;;;;5054008;28;20452;-78
2023/08/26 06:38:00;;;;;;;5.50;5.00;;;20.30;99.90;;;;;;5052974;28;20825;-77
2023/08/26 06:40:31;;;;;;;8.50;5.27;;;20.30;99.90;;;;;;5053248;28;20452;-78
2023/08/26 06:42:59;;;;;;;9.90;5.87;;;20.40;99.90;;;;;;5054938;28;20457;-79
2023/08/26 06:45:26;;;;;;;6.20;5.60;;;20.60;99.90;;;;;;5054788;28;20464;-79
2023/08/26 06:47:54;;;;;;;5.70;5.20;;;20.70;99.90;;;;;;5054444;28;20484;-77
2023/08/26 06:50:22;;;;;;;6.03;4.80;;;20.80;99.90;;;;;;5054214;28;20851;-76
2023/08/26 06:52:52;;;;;;;5.60;5.10;;;20.80;99.90;;;;;;5053417;28;20456;-79
2023/08/26 06:55:23;;;;;;;6.13;5.30;;;20.80;99.90;;;;;;5054992;28;20449;-79
2023/08/26 06:57:54;;;;;;;6.77;5.70;;;20.70;99.90;;;;;;5054646;28;20466;-76
2023/08/26 07:00:22;;;;;;;7.87;4.60;;;20.80;99.90;;;;;;5054358;28;20449;-77
2023/08/26 07:02:50;;;;;;;6.83;5.03;;;20.80;99.90;;;;;;5054293;28;20503;-77
2023/08/26 07:05:18;;;;;;;6.37;5.60;;;20.80;99.90;;;;;;5053757;28;20456;-77
2023/08/26 07:07:46;;;;;;;6.03;4.70;;;20.80;99.90;;;;;;5053550;28;20476;-79
2023/08/26 07:10:15;;;;;;;6.67;4.80;;;20.80;99.90;;;;;;5054339;28;20981;-79
2023/08/26 07:12:43;;;;;;;5.20;4.80;;;20.80;99.90;;;;;;5054251;28;20468;-81
2023/08/26 07:15:11;;;;;;;5.80;5.30;;;20.70;99.90;;;;;;5054847;28;20479;-79
2023/08/26 07:17:39;;;;;;;8.80;5.60;;;20.70;99.90;;;;;;5053970;28;20508;-77
2023/08/26 07:20:10;;;;;;;5.30;4.90;;;20.70;99.90;;;;;;5055724;28;20791;-80
2023/08/26 07:22:38;;;;;;;5.37;4.97;;;20.60;99.90;;;;;;5054780;28;20541;-77
2023/08/26 07:25:06;;;;;;;7.63;4.83;;;20.60;99.90;;;;;;5056655;28;20452;-78
2023/08/26 07:27:35;;;;;;;6.23;5.10;;;20.60;99.90;;;;;;5057140;28;20469;-77
2023/08/26 07:30:04;;;;;;;8.53;6.10;;;20.60;99.90;;;;;;5056318;28;20454;-77
2023/08/26 07:32:35;;;;;;;5.13;4.60;;;20.80;99.90;;;;;;5060435;28;20505;-81
2023/08/26 07:35:03;;;;;;;5.57;5.03;;;20.80;99.90;;;;;;5058923;28;20473;-76
2023/08/26 07:37:31;;;;;;;6.90;6.13;;;20.80;99.90;;;;;;5056048;28;20464;-77
2023/08/26 07:40:01;;;;;;;8.87;5.03;;;20.80;99.90;;;;;;5052397;28;20800;-75
2023/08/26 07:42:29;;;;;;;6.20;5.30;;;20.90;99.90;;;;;;5051593;28;20472;-79
2023/08/26 07:44:58;;;;;;;6.70;5.27;;;21.20;99.90;;;;;;5051921;28;20481;-77
2023/08/26 07:47:27;;;;;;;6.47;4.70;;;21.40;99.90;;;;;;5055504;28;20469;-78
2023/08/26 07:49:54;;;;;;;8.43;5.37;;;21.50;99.90;;;;;;5051884;28;20457;-77
2023/08/26 07:52:21;;;;;;;6.77;5.00;;;21.70;99.90;;;;;;5053334;28;20488;-80
2023/08/26 07:54:52;;;;;;;6.53;4.30;;;21.50;99.90;;;;;;5053748;28;20453;-79
2023/08/26 07:57:20;;;;;;;5.30;4.80;;;21.30;99.90;;;;;;5050735;28;20489;-80
2023/08/26 07:59:47;;;;;;;7.90;5.40;;;21.50;99.90;;;;;;5039553;28;20818;-80
2023/08/26 08:02:20;;;;;;;5.33;4.80;;;21.80;99.90;;;;;;5052731;28;20505;-78
2023/08/26 08:04:49;;;;;;;5.27;4.10;;;21.90;99.90;;;;;;5056614;28;20448;-77
2023/08/26 08:07:18;;;;;;;5.83;4.67;;;22.00;99.90;;;;;;5052018;28;20487;-78
2023/08/26 08:09:56;;;;;;;6.93;4.63;;;21.70;99.90;;;;;;5050971;28;20433;-77
2023/08/26 08:12:33;;;;;;;6.60;5.30;;;21.70;99.90;;;;;;5056627;28;20559;-78
2023/08/26 08:15:11;;;;;;;5.60;4.87;;;21.90;99.90;;;;;;5048092;28;20571;-77
2023/08/26 08:17:45;;;;;;;8.40;5.10;;;21.90;99.90;;;;;;5062116;28;20465;-78
2023/08/26 08:20:13;;;;;;;5.03;4.17;;;21.80;99.90;;;;;;5067446;28;20496;-78
2023/08/26 08:22:47;;;;;;;8.70;5.10;;;21.50;99.90;;;;;;5067289;28;20473;-79
2023/08/26 08:25:15;;;;;;;5.43;4.90;;;21.50;99.90;;;;;;5071125;28;20509;-78
2023/08/26 08:27:43;;;;;;;6.07;4.60;;;21.60;99.90;;;;;;5051754;28;20481;-78
2023/08/26 08:30:11;;;;;;;7.50;4.73;;;21.40;99.90;;;;;;5058319;28;20529;-79
2023/08/26 08:32:39;;;;;;;5.50;5.00;;;21.40;99.90;;;;;;5060287;28;20447;-79
2023/08/26 08:35:10;;;;;;;6.87;4.77;;;21.40;99.90;;;;;;5066417;28;20445;-79
2023/08/26 08:37:45;;;;;;;5.30;4.80;;;21.60;99.90;;;;;;5068699;28;20461;-77
2023/08/26 08:40:13;;;;;;;8.13;5.37;;;21.60;99.90;;;;;;5065951;28;20495;-78
2023/08/26 08:42:47;;;;;;;7.17;5.30;;;21.60;99.90;;;;;;5052630;28;20439;-79
2023/08/26 08:45:28;;;;;;;6.60;4.90;;;21.70;99.90;;;;;;5057831;28;20445;-80
2023/08/26 08:47:58;;;;;;;5.43;4.87;;;21.90;99.90;;;;;;5062978;28;20471;-80
2023/08/26 08:50:31;;;;;;;6.20;4.57;;;21.90;99.90;;;;;;5070972;28;20456;-76
2023/08/26 08:53:00;;;;;;;7.10;5.53;;;21.90;99.90;;;;;;5067609;28;20511;-79
2023/08/26 08:55:28;;;;;;;6.77;4.93;;;21.90;99.90;;;;;;5070154;28;20508;-78
2023/08/26 08:57:57;;;;;;;6.33;4.60;;;21.80;99.90;;;;;;5060812;28;20469;-77
2023/08/26 09:00:30;;;;;;;8.30;4.63;;;21.90;99.90;;;;;;5063436;28;20449;-78
2023/08/26 09:03:04;;;;;;;5.43;4.97;;;22.00;99.90;;;;;;5066218;28;20449;-78
2023/08/26 09:05:36;;;;;;;7.40;5.10;;;22.10;99.90;;;;;;5058061;28;20468;-77
2023/08/26 09:08:04;;;;;;;5.50;4.90;;;22.20;99.90;;;;;;5064836;28;20474;-78
2023/08/26 09:10:33;;;;;;;6.60;4.43;;;22.30;99.90;;;;;;5060611;28;20890;-78
2023/08/26 09:13:16;;;;;;;5.70;5.07;;;22.50;99.90;;;;;;5060860;28;20434;-78
2023/08/26 09:15:48;;;;;;;5.70;5.20;;;22.50;99.90;;;;;;5051816;28;20453;-78
2023/08/26 09:18:19;;;;;;;4.97;4.57;;;22.30;99.90;;;;;;5054610;28;20535;-78
2023/08/26 09:20:51;;;;;;;7.83;5.13;;;22.10;99.90;;;;;;5051183;28;20513;-78
2023/08/26 09:23:23;;;;;;;5.37;4.97;;;22.20;99.90;;;;;;5058438;28;20933;-78
2023/08/26 09:25:58;;;;;;;6.00;5.40;;;22.20;99.90;;;;;;5058066;28;20446;-79
2023/08/26 09:28:34;;;;;;;5.63;5.03;;;22.00;99.90;;;;;;5064081;28;20854;-79
2023/08/26 09:31:09;;;;;;;6.07;4.50;;;22.00;99.90;;;;;;5047175;28;20461;-78
2023/08/26 09:33:37;;;;;;;6.23;5.00;;;22.20;99.90;;;;;;5067553;28;20442;-80
2023/08/26 09:36:16;;;;;;;9.93;5.00;;;22.30;99.90;;;;;;5071798;28;20534;-77
2023/08/26 09:38:47;;;;;;;8.40;4.73;;;22.40;99.90;;;;;;5074522;28;20434;-80
2023/08/26 09:41:22;;;;;;;5.70;4.90;;;22.40;99.90;;;;;;5075032;28;20446;-77
2023/08/26 09:43:50;;;;;;;5.67;4.70;;;22.70;99.90;;;;;;5076401;28;20472;-81
2023/08/26 09:46:23;;;;;;;5.50;5.00;;;22.60;99.90;;;;;;5074675;28;20512;-80
2023/08/26 09:48:59;;;;;;;6.33;5.30;;;22.70;99.90;;;;;;5059316;28;20450;-76
2023/08/26 09:51:30;;;;;;;7.20;6.50;;;22.50;99.90;;;;;;5063541;28;20882;-78
2023/08/26 09:53:59;;;;;;;7.27;6.23;;;22.20;99.90;;;;;;5054609;28;20597;-79
2023/08/26 09:56:29;;;;;;;7.77;5.40;;;22.10;99.90;;;;;;5045784;28;20474;-77
2023/08/26 09:58:59;;;;;;;6.50;6.00;;;22.00;99.90;;;;;;5040058;28;20446;-79
2023/08/26 10:01:28;;;;;;;6.40;5.83;;;21.80;99.90;;;;;;5053402;28;20537;-78
2023/08/26 10:04:14;;;;;;;6.10;5.47;;;21.70;99.90;;;;;;5053881;28;20454;-78
2023/08/26 10:06:52;;;;;;;7.43;5.50;;;21.80;99.90;;;;;;5055062;28;20466;-80
2023/08/26 10:09:35;;;;;;;7.00;6.00;;;21.90;99.90;;;;;;5055785;28;20900;-81
2023/08/26 10:12:22;;;;;;;7.60;5.40;;;22.10;99.90;;;;;;5057195;28;20495;-78
2023/08/26 10:15:07;;;;;;;5.77;5.27;;;22.00;99.90;;;;;;5036627;28;20883;-81
2023/08/26 10:17:36;;;;;;;6.70;5.33;;;21.80;99.90;;;;;;5047169;28;20461;-79
2023/08/26 10:20:30;;;;;;;5.47;4.97;;;21.80;99.90;;;;;;5056827;28;20484;-81
2023/08/26 10:23:11;;;;;;;12.07;5.13;;;21.90;99.90;;;;;;5044847;28;20991;-80
2023/08/26 10:25:56;;;;;;;7.50;4.70;;;21.90;99.90;;;;;;5055646;28;20442;-81
2023/08/26 10:28:28;;;;;;;5.93;5.03;;;22.00;99.90;;;;;;5055507;28;20956;-80
2023/08/26 10:30:58;;;;;;;6.17;5.20;;;21.70;99.90;;;;;;5055294;28;20446;-77
2023/08/26 10:33:29;;;;;;;5.10;4.60;;;21.70;99.90;;;;;;5056315;28;20503;-81
2023/08/26 10:36:16;;;;;;;5.67;5.00;;;21.70;99.90;;;;;;5055917;28;20468;-80
2023/08/26 10:39:02;;;;;;;5.50;5.00;;;21.80;99.90;;;;;;5055071;28;20441;-79
2023/08/26 10:41:31;;;;;;;7.03;5.00;;;21.90;99.90;;;;;;5054899;28;20516;-82
2023/08/26 10:44:09;;;;;;;8.47;5.47;;;21.90;99.90;;;;;;5053117;28;20480;-80
2023/08/26 10:46:54;;;;;;;7.83;5.63;;;21.90;99.90;;;;;;5054352;28;20473;-82
2023/08/26 10:49:34;;;;;;;4.73;4.33;;;21.80;99.90;;;;;;5055872;28;20442;-81
2023/08/26 10:52:13;;;;;;;5.57;5.00;;;21.90;99.90;;;;;;5054441;28;21022;-77
2023/08/26 10:54:44;;;;;;;11.17;6.50;;;21.80;99.90;;;;;;5055521;28;20445;-77
2023/08/26 10:57:13;;;;;;;6.50;5.90;;;21.80;99.90;;;;;;5058850;28;20462;-77
2023/08/26 10:59:42;;;;;;;5.67;5.27;;;21.40;99.90;;;;;;5058816;28;20448;-78
2023/08/26 11:02:26;;;;;;;6.73;5.10;;;21.30;99.90;;;;;;5058445;28;20441;-80
2023/08/26 11:05:00;;;;;;;5.70;5.20;;;21.40;99.90;;;;;;5041758;28;20455;-79
2023/08/26 11:07:35;;;;;;;10.13;5.20;;;21.70;99.90;;;;;;5041389;28;20466;-79
2023/08/26 11:10:34;;;;;;;6.90;4.77;;;21.80;99.90;;;;;;5040874;28;20527;-80
2023/08/26 11:13:05;;;;;;;7.37;5.03;;;22.00;99.90;;;;;;5048454;28;20468;-81
2023/08/26 11:15:37;;;;;;;8.00;5.20;;;22.10;99.90;;;;;;5059054;28;20442;-77
2023/08/26 11:18:08;;;;;;;6.23;5.37;;;22.10;99.90;;;;;;5058295;28;20468;-79
2023/08/26 11:20:57;;;;;;;5.50;4.73;;;22.30;99.90;;;;;;5054174;28;20503;-80
2023/08/26 11:23:29;;;;;;;6.60;4.83;;;22.00;99.90;;;;;;5053774;28;20529;-79
2023/08/26 11:25:59;;;;;;;5.67;4.63;;;22.10;99.90;;;;;;5054675;28;20517;-78
2023/08/26 11:28:39;;;;;;;5.93;4.63;;;22.00;99.90;;;;;;5051818;28;20450;-79
2023/08/26 11:31:09;;;;;;;6.40;4.83;;;21.90;99.90;;;;;;5053270;28;20441;-81
2023/08/26 11:33:36;;;;;;;5.70;4.93;;;21.70;99.90;;;;;;5053729;28;20453;-79
2023/08/26 11:36:07;;;;;;;4.60;4.07;;;21.80;99.90;;;;;;5049387;28;20465;-80
2023/08/26 11:38:35;;;;;;;5.67;5.13;;;21.90;99.90;;;;;;5063374;28;20453;-80
2023/08/26 11:41:09;;;;;;;5.03;4.57;;;22.00;99.90;;;;;;5059445;28;20460;-81
2023/08/26 11:43:45;;;;;;;4.70;4.40;;;22.10;99.90;;;;;;5059410;28;20468;-79
2023/08/26 11:46:12;;;;;;;6.40;5.80;;;22.20;99.90;;;;;;5059404;28;20476;-77
2023/08/26 11:48:46;;;;;;;6.20;5.20;;;22.10;99.90;;;;;;5064255;28;20469;-79
2023/08/26 11:51:15;;;;;;;6.10;5.50;;;22.10;99.90;;;;;;5064134;28;20537;-76
2023/08/26 11:53:43;;;;;;;8.80;5.50;;;21.90;99.90;;;;;;5060873;28;20430;-80
2023/08/26 11:56:12;;;;;;;9.17;5.60;;;21.80;99.90;;;;;;5056951;28;20465;-77
2023/08/26 11:58:44;;;;;;;6.80;6.23;;;21.70;99.90;;;;;;5055787;28;20486;-78
2023/08/26 12:01:15;;;;;;;6.33;5.67;;;21.40;99.90;;;;;;5056233;28;20426;-76
2023/08/26 12:03:44;;;;;;;6.60;5.97;;;21.30;99.90;;;;;;5056777;28;20476;-77
2023/08/26 12:06:13;;;;;;;7.00;6.00;;;21.40;99.90;;;;;;5057985;28;20462;-77
2023/08/26 12:08:42;;;;;;;8.00;6.13;;;21.30;99.90;;;;;;5067674;28;20450;-77
2023/08/26 12:11:14;;;;;;;6.17;5.50;;;21.10;99.90;;;;;;5071096;28;20438;-77
2023/08/26 12:13:46;;;;;;;6.77;6.17;;;21.00;99.90;;;;;;5068142;28;20475;-78
2023/08/26 12:16:14;;;;;;;7.13;6.27;;;20.80;99.90;;;;;;5065876;28;20474;-79
2023/08/26 12:18:46;;;;;;;7.20;6.60;;;20.90;99.90;;;;;;5062661;28;20458;-81
2023/08/26 12:21:17;;;;;;;7.43;6.73;;;20.70;99.90;;;;;;5066752;28;20474;-80
2023/08/26 12:23:46;;;;;;;8.00;6.20;;;20.80;99.90;;;;;;5064019;28;20499;-80
2023/08/26 12:26:16;;;;;;;7.20;6.57;;;20.90;99.90;;;;;;5063210;28;20576;-78
2023/08/26 12:28:44;;;;;;;8.30;7.50;;;20.80;99.90;;;;;;5062737;28;20445;-78
2023/08/26 12:31:34;;;;;;;8.20;7.03;;;20.60;99.90;;;;;;5060713;28;20445;-77
2023/08/26 12:34:02;;;;;;;9.90;6.80;;;20.60;99.90;;;;;;5062959;28;20529;-78
2023/08/26 12:36:34;;;;;;;7.60;7.00;;;20.40;99.90;;;;;;5063907;28;20492;-80
2023/08/26 12:39:08;;;;;;;9.90;7.20;;;20.20;99.90;;;;;;5065509;28;20450;-79
2023/08/26 12:41:38;;;;;;;9.10;7.60;;;20.20;99.90;;;;;;5063552;28;20445;-77
2023/08/26 12:44:09;;;;;;;6.97;6.37;;;20.10;99.90;;;;;;5060031;28;20499;-77
2023/08/26 12:46:39;;;;;;;7.43;6.80;;;20.10;99.90;;;;;;5057219;28;20568;-78
2023/08/26 12:49:10;;;;;;;6.60;6.00;;;20.00;99.90;;;;;;5045282;28;20453;-79
2023/08/26 12:51:38;;;;;;;6.80;6.20;;;19.80;99.90;;;;;;5055302;28;20449;-80
2023/08/26 12:54:13;;;;;;;6.77;5.93;;;19.60;99.90;;;;;;5058392;28;20532;-81
2023/08/26 12:56:42;;;;;;;6.97;6.27;;;19.40;99.90;;;;;;5062140;28;20507;-79
2023/08/26 12:59:12;;;;;;;7.30;6.70;;;19.30;99.90;;;;;;5064568;28;20441;-80
2023/08/26 13:01:43;;;;;;;6.80;6.20;;;19.20;99.90;;;;;;5065986;28;20454;-81
2023/08/26 13:04:10;;;;;;;6.07;5.33;;;19.30;99.90;;;;;;5061705;28;20901;-81
2023/08/26 13:06:40;;;;;;;6.07;5.00;;;19.10;99.90;;;;;;5063202;28;20461;-81
2023/08/26 13:09:08;;;;;;;7.50;4.77;;;18.80;99.90;;;;;;5065402;28;20453;-81